sensor_id;sensor_type;location;lat;lon;timestamp;temperature;humidity
78619;DHT22;67941;52.506;5.470;2023-05-07T00:00:07;14.20;75.10
78619;DHT22;67941;52.506;5.470;2023-05-07T00:02:37;14.20;75.20
78619;DHT22;67941;52.506;5.470;2023-05-07T00:05:07;14.20;75.20
78619;DHT22;67941;52.506;5.470;2023-05-07T00:07:36;14.20;75.20
78619;DHT22;67941;52.506;5.470;2023-05-07T00:10:06;14.20;75.20
78619;DHT22;67941;52.506;5.470;2023-05-07T00:12:35;14.20;75.20
78619;DHT22;67941;52.506;5.470;2023-05-07T00:15:08;14.20;75.30
78619;DHT22;67941;52.506;5.470;2023-05-07T00:17:37;14.10;75.30
78619;DHT22;67941;52.506;5.470;2023-05-07T00:20:07;14.10;75.30
78619;DHT22;67941;52.506;5.470;2023-05-07T00:22:36;14.10;75.40
78619;DHT22;67941;52.506;5.470;2023-05-07T00:25:06;14.10;75.50
78619;DHT22;67941;52.506;5.470;2023-05-07T00:27:35;14.10;75.60
78619;DHT22;67941;52.506;5.470;2023-05-07T00:30:08;14.10;75.60
78619;DHT22;67941;52.506;5.470;2023-05-07T00:32:38;14.10;75.70
78619;DHT22;67941;52.506;5.470;2023-05-07T00:35:08;14.20;75.70
78619;DHT22;67941;52.506;5.470;2023-05-07T00:37:37;14.20;75.70
78619;DHT22;67941;52.506;5.470;2023-05-07T00:40:08;14.20;75.70
78619;DHT22;67941;52.506;5.470;2023-05-07T00:42:38;14.20;75.70
78619;DHT22;67941;52.506;5.470;2023-05-07T00:45:10;14.20;75.70
78619;DHT22;67941;52.506;5.470;2023-05-07T00:47:39;14.20;75.80
78619;DHT22;67941;52.506;5.470;2023-05-07T00:50:09;14.20;75.80
78619;DHT22;67941;52.506;5.470;2023-05-07T00:52:38;14.20;75.80
78619;DHT22;67941;52.506;5.470;2023-05-07T00:55:08;14.20;75.90
78619;DHT22;67941;52.506;5.470;2023-05-07T00:57:38;14.30;75.80
78619;DHT22;67941;52.506;5.470;2023-05-07T01:00:12;14.30;75.80
78619;DHT22;67941;52.506;5.470;2023-05-07T01:02:41;14.20;75.80
78619;DHT22;67941;52.506;5.470;2023-05-07T01:05:12;14.20;75.80
78619;DHT22;67941;52.506;5.470;2023-05-07T01:07:42;14.20;75.90
78619;DHT22;67941;52.506;5.470;2023-05-07T01:10:12;14.20;75.90
78619;DHT22;67941;52.506;5.470;2023-05-07T01:12:41;14.20;76.00
78619;DHT22;67941;52.506;5.470;2023-05-07T01:15:14;14.20;76.00
78619;DHT22;67941;52.506;5.470;2023-05-07T01:17:44;14.20;76.00
78619;DHT22;67941;52.506;5.470;2023-05-07T01:20:20;14.20;76.10
78619;DHT22;67941;52.506;5.470;2023-05-07T01:22:53;14.20;76.00
78619;DHT22;67941;52.506;5.470;2023-05-07T01:25:23;14.20;76.10
78619;DHT22;67941;52.506;5.470;2023-05-07T01:27:56;14.20;76.10
78619;DHT22;67941;52.506;5.470;2023-05-07T01:30:28;14.20;76.20
78619;DHT22;67941;52.506;5.470;2023-05-07T01:33:01;14.20;76.20
78619;DHT22;67941;52.506;5.470;2023-05-07T01:35:37;14.20;76.20
78619;DHT22;67941;52.506;5.470;2023-05-07T01:38:10;14.20;76.20
78619;DHT22;67941;52.506;5.470;2023-05-07T01:40:39;14.20;76.30
78619;DHT22;67941;52.506;5.470;2023-05-07T01:43:08;14.30;76.30
78619;DHT22;67941;52.506;5.470;2023-05-07T01:45:38;14.20;76.30
78619;DHT22;67941;52.506;5.470;2023-05-07T01:48:09;14.20;76.30
78619;DHT22;67941;52.506;5.470;2023-05-07T01:50:39;14.30;76.40
78619;DHT22;67941;52.506;5.470;2023-05-07T01:53:10;14.30;76.40
78619;DHT22;67941;52.506;5.470;2023-05-07T01:55:39;14.30;76.40
78619;DHT22;67941;52.506;5.470;2023-05-07T01:58:08;14.30;76.40
78619;DHT22;67941;52.506;5.470;2023-05-07T02:00:37;14.30;76.40
78619;DHT22;67941;52.506;5.470;2023-05-07T02:03:07;14.30;76.50
78619;DHT22;67941;52.506;5.470;2023-05-07T02:05:50;14.40;76.50
78619;DHT22;67941;52.506;5.470;2023-05-07T02:08:32;14.30;76.50
78619;DHT22;67941;52.506;5.470;2023-05-07T02:11:01;14.30;76.50
78619;DHT22;67941;52.506;5.470;2023-05-07T02:13:32;14.30;76.50
78619;DHT22;67941;52.506;5.470;2023-05-07T02:16:02;14.30;76.50
78619;DHT22;67941;52.506;5.470;2023-05-07T02:18:31;14.30;76.50
78619;DHT22;67941;52.506;5.470;2023-05-07T02:21:01;14.30;76.50
78619;DHT22;67941;52.506;5.470;2023-05-07T02:23:33;14.30;76.60
78619;DHT22;67941;52.506;5.470;2023-05-07T02:26:01;14.30;76.60
78619;DHT22;67941;52.506;5.470;2023-05-07T02:28:30;14.30;76.60
78619;DHT22;67941;52.506;5.470;2023-05-07T02:31:03;14.30;76.60
78619;DHT22;67941;52.506;5.470;2023-05-07T02:33:32;14.20;76.60
78619;DHT22;67941;52.506;5.470;2023-05-07T02:36:08;14.20;76.70
78619;DHT22;67941;52.506;5.470;2023-05-07T02:38:57;14.20;76.70
78619;DHT22;67941;52.506;5.470;2023-05-07T02:41:27;14.20;76.70
78619;DHT22;67941;52.506;5.470;2023-05-07T02:43:56;14.20;76.80
78619;DHT22;67941;52.506;5.470;2023-05-07T02:46:25;14.10;76.90
78619;DHT22;67941;52.506;5.470;2023-05-07T02:49:04;14.10;77.00
78619;DHT22;67941;52.506;5.470;2023-05-07T02:51:33;14.10;76.90
78619;DHT22;67941;52.506;5.470;2023-05-07T02:54:09;14.10;77.00
78619;DHT22;67941;52.506;5.470;2023-05-07T02:56:38;14.20;77.00
78619;DHT22;67941;52.506;5.470;2023-05-07T02:59:07;14.20;77.00
78619;DHT22;67941;52.506;5.470;2023-05-07T03:01:39;14.20;77.00
78619;DHT22;67941;52.506;5.470;2023-05-07T03:04:10;14.20;77.00
78619;DHT22;67941;52.506;5.470;2023-05-07T03:06:38;14.20;77.00
78619;DHT22;67941;52.506;5.470;2023-05-07T03:09:10;14.10;77.00
78619;DHT22;67941;52.506;5.470;2023-05-07T03:11:39;14.10;77.00
78619;DHT22;67941;52.506;5.470;2023-05-07T03:14:08;14.10;77.00
78619;DHT22;67941;52.506;5.470;2023-05-07T03:16:38;14.10;77.10
78619;DHT22;67941;52.506;5.470;2023-05-07T03:19:06;14.10;77.20
78619;DHT22;67941;52.506;5.470;2023-05-07T03:21:35;14.10;77.20
78619;DHT22;67941;52.506;5.470;2023-05-07T03:24:05;14.20;77.20
78619;DHT22;67941;52.506;5.470;2023-05-07T03:26:36;14.20;77.20
78619;DHT22;67941;52.506;5.470;2023-05-07T03:29:05;14.20;77.20
78619;DHT22;67941;52.506;5.470;2023-05-07T03:31:34;14.10;77.20
78619;DHT22;67941;52.506;5.470;2023-05-07T03:34:03;14.10;77.30
78619;DHT22;67941;52.506;5.470;2023-05-07T03:36:32;14.20;77.30
78619;DHT22;67941;52.506;5.470;2023-05-07T03:39:03;14.10;77.30
78619;DHT22;67941;52.506;5.470;2023-05-07T03:41:40;14.10;77.20
78619;DHT22;67941;52.506;5.470;2023-05-07T03:44:09;14.10;77.20
78619;DHT22;67941;52.506;5.470;2023-05-07T03:46:38;14.00;77.30
78619;DHT22;67941;52.506;5.470;2023-05-07T03:49:09;14.00;77.40
78619;DHT22;67941;52.506;5.470;2023-05-07T03:51:38;13.90;77.40
78619;DHT22;67941;52.506;5.470;2023-05-07T03:54:07;13.90;77.40
78619;DHT22;67941;52.506;5.470;2023-05-07T03:56:43;13.90;77.40
78619;DHT22;67941;52.506;5.470;2023-05-07T03:59:12;13.80;77.50
78619;DHT22;67941;52.506;5.470;2023-05-07T04:01:43;13.80;77.50
78619;DHT22;67941;52.506;5.470;2023-05-07T04:04:16;13.70;77.50
78619;DHT22;67941;52.506;5.470;2023-05-07T04:06:44;13.70;77.60
78619;DHT22;67941;52.506;5.470;2023-05-07T04:09:13;13.70;77.70
78619;DHT22;67941;52.506;5.470;2023-05-07T04:11:45;13.70;77.70
78619;DHT22;67941;52.506;5.470;2023-05-07T04:14:14;13.70;77.80
78619;DHT22;67941;52.506;5.470;2023-05-07T04:16:43;13.70;77.80
78619;DHT22;67941;52.506;5.470;2023-05-07T04:19:12;13.60;77.90
78619;DHT22;67941;52.506;5.470;2023-05-07T04:21:40;13.60;77.90
78619;DHT22;67941;52.506;5.470;2023-05-07T04:24:09;13.60;77.90
78619;DHT22;67941;52.506;5.470;2023-05-07T04:26:38;13.60;77.90
78619;DHT22;67941;52.506;5.470;2023-05-07T04:29:10;13.60;78.00
78619;DHT22;67941;52.506;5.470;2023-05-07T04:31:39;13.60;78.10
78619;DHT22;67941;52.506;5.470;2023-05-07T04:34:10;13.60;78.00
78619;DHT22;67941;52.506;5.470;2023-05-07T04:36:41;13.60;78.20
78619;DHT22;67941;52.506;5.470;2023-05-07T04:39:12;13.60;78.10
78619;DHT22;67941;52.506;5.470;2023-05-07T04:41:44;13.60;78.20
78619;DHT22;67941;52.506;5.470;2023-05-07T04:44:15;13.60;78.20
78619;DHT22;67941;52.506;5.470;2023-05-07T04:46:45;13.60;78.30
78619;DHT22;67941;52.506;5.470;2023-05-07T04:49:13;13.70;78.20
78619;DHT22;67941;52.506;5.470;2023-05-07T04:51:43;13.60;78.20
78619;DHT22;67941;52.506;5.470;2023-05-07T04:54:13;13.70;78.30
78619;DHT22;67941;52.506;5.470;2023-05-07T04:56:43;13.70;78.30
78619;DHT22;67941;52.506;5.470;2023-05-07T04:59:14;13.70;78.40
78619;DHT22;67941;52.506;5.470;2023-05-07T05:01:43;13.70;78.40
78619;DHT22;67941;52.506;5.470;2023-05-07T05:04:12;13.80;78.40
78619;DHT22;67941;52.506;5.470;2023-05-07T05:06:41;13.90;78.50
78619;DHT22;67941;52.506;5.470;2023-05-07T05:09:11;13.90;78.50
78619;DHT22;67941;52.506;5.470;2023-05-07T05:11:41;13.90;78.50
78619;DHT22;67941;52.506;5.470;2023-05-07T05:14:10;13.90;78.50
78619;DHT22;67941;52.506;5.470;2023-05-07T05:16:42;13.90;78.50
78619;DHT22;67941;52.506;5.470;2023-05-07T05:19:13;13.90;78.50
78619;DHT22;67941;52.506;5.470;2023-05-07T05:21:43;13.90;78.60
78619;DHT22;67941;52.506;5.470;2023-05-07T05:24:13;13.90;78.50
78619;DHT22;67941;52.506;5.470;2023-05-07T05:26:42;13.90;78.60
78619;DHT22;67941;52.506;5.470;2023-05-07T05:29:11;13.90;78.60
78619;DHT22;67941;52.506;5.470;2023-05-07T05:31:44;13.90;78.70
78619;DHT22;67941;52.506;5.470;2023-05-07T05:34:13;13.90;78.70
78619;DHT22;67941;52.506;5.470;2023-05-07T05:36:43;13.90;78.70
78619;DHT22;67941;52.506;5.470;2023-05-07T05:39:14;13.90;78.80
78619;DHT22;67941;52.506;5.470;2023-05-07T05:41:44;14.00;78.70
78619;DHT22;67941;52.506;5.470;2023-05-07T05:44:13;14.00;78.90
78619;DHT22;67941;52.506;5.470;2023-05-07T05:46:45;14.00;78.90
78619;DHT22;67941;52.506;5.470;2023-05-07T05:49:15;14.10;79.00
78619;DHT22;67941;52.506;5.470;2023-05-07T05:51:44;14.10;79.00
78619;DHT22;67941;52.506;5.470;2023-05-07T05:54:14;14.20;79.10
78619;DHT22;67941;52.506;5.470;2023-05-07T05:56:43;14.30;79.00
78619;DHT22;67941;52.506;5.470;2023-05-07T05:59:13;14.40;79.00
78619;DHT22;67941;52.506;5.470;2023-05-07T06:01:42;14.40;79.00
78619;DHT22;67941;52.506;5.470;2023-05-07T06:04:14;14.50;79.10
78619;DHT22;67941;52.506;5.470;2023-05-07T06:06:43;14.50;79.00
78619;DHT22;67941;52.506;5.470;2023-05-07T06:09:11;14.60;79.00
78619;DHT22;67941;52.506;5.470;2023-05-07T06:11:43;14.60;78.90
78619;DHT22;67941;52.506;5.470;2023-05-07T06:14:13;14.70;78.90
78619;DHT22;67941;52.506;5.470;2023-05-07T06:16:42;14.70;79.00
78619;DHT22;67941;52.506;5.470;2023-05-07T06:19:13;14.80;79.00
78619;DHT22;67941;52.506;5.470;2023-05-07T06:21:44;14.90;79.00
78619;DHT22;67941;52.506;5.470;2023-05-07T06:24:32;15.00;79.10
78619;DHT22;67941;52.506;5.470;2023-05-07T06:27:00;15.00;79.20
78619;DHT22;67941;52.506;5.470;2023-05-07T06:29:31;15.20;79.00
78619;DHT22;67941;52.506;5.470;2023-05-07T06:32:08;15.30;78.90
78619;DHT22;67941;52.506;5.470;2023-05-07T06:34:41;15.40;78.90
78619;DHT22;67941;52.506;5.470;2023-05-07T06:37:10;15.40;78.70
78619;DHT22;67941;52.506;5.470;2023-05-07T06:39:55;15.50;78.70
78619;DHT22;67941;52.506;5.470;2023-05-07T06:42:24;15.40;78.70
78619;DHT22;67941;52.506;5.470;2023-05-07T06:44:57;15.40;78.60
78619;DHT22;67941;52.506;5.470;2023-05-07T06:47:29;15.40;78.70
78619;DHT22;67941;52.506;5.470;2023-05-07T06:50:01;15.50;78.70
78619;DHT22;67941;52.506;5.470;2023-05-07T06:52:32;15.50;78.70
78619;DHT22;67941;52.506;5.470;2023-05-07T06:55:01;15.60;78.70
78619;DHT22;67941;52.506;5.470;2023-05-07T06:57:30;15.60;78.70
78619;DHT22;67941;52.506;5.470;2023-05-07T06:59:59;15.70;78.70
78619;DHT22;67941;52.506;5.470;2023-05-07T07:02:29;15.80;78.80
78619;DHT22;67941;52.506;5.470;2023-05-07T07:04:57;15.90;78.80
78619;DHT22;67941;52.506;5.470;2023-05-07T07:07:29;16.00;78.70
78619;DHT22;67941;52.506;5.470;2023-05-07T07:09:58;16.10;78.50
78619;DHT22;67941;52.506;5.470;2023-05-07T07:12:29;16.20;78.40
78619;DHT22;67941;52.506;5.470;2023-05-07T07:14:57;16.40;78.30
78619;DHT22;67941;52.506;5.470;2023-05-07T07:17:27;16.40;78.30
78619;DHT22;67941;52.506;5.470;2023-05-07T07:19:56;16.50;78.20
78619;DHT22;67941;52.506;5.470;2023-05-07T07:22:25;16.50;78.30
78619;DHT22;67941;52.506;5.470;2023-05-07T07:24:56;16.60;78.20
78619;DHT22;67941;52.506;5.470;2023-05-07T07:27:25;16.70;78.20
78619;DHT22;67941;52.506;5.470;2023-05-07T07:29:54;16.80;78.10
78619;DHT22;67941;52.506;5.470;2023-05-07T07:32:24;16.90;78.20
78619;DHT22;67941;52.506;5.470;2023-05-07T07:34:53;16.90;78.10
78619;DHT22;67941;52.506;5.470;2023-05-07T07:37:22;17.00;78.10
78619;DHT22;67941;52.506;5.470;2023-05-07T07:39:51;17.20;78.00
78619;DHT22;67941;52.506;5.470;2023-05-07T07:42:24;17.40;78.10
78619;DHT22;67941;52.506;5.470;2023-05-07T07:44:53;17.50;78.10
78619;DHT22;67941;52.506;5.470;2023-05-07T07:47:24;17.70;77.70
78619;DHT22;67941;52.506;5.470;2023-05-07T07:49:53;17.70;77.30
78619;DHT22;67941;52.506;5.470;2023-05-07T07:52:22;17.70;77.30
78619;DHT22;67941;52.506;5.470;2023-05-07T07:54:51;17.70;77.50
78619;DHT22;67941;52.506;5.470;2023-05-07T07:57:24;17.80;77.70
78619;DHT22;67941;52.506;5.470;2023-05-07T07:59:53;18.00;77.70
78619;DHT22;67941;52.506;5.470;2023-05-07T08:02:22;18.10;77.70
78619;DHT22;67941;52.506;5.470;2023-05-07T08:04:51;18.30;77.50
78619;DHT22;67941;52.506;5.470;2023-05-07T08:07:20;18.40;77.40
78619;DHT22;67941;52.506;5.470;2023-05-07T08:09:49;18.40;77.20
78619;DHT22;67941;52.506;5.470;2023-05-07T08:12:24;18.50;77.20
78619;DHT22;67941;52.506;5.470;2023-05-07T08:14:53;18.50;77.20
78619;DHT22;67941;52.506;5.470;2023-05-07T08:17:22;18.60;77.30
78619;DHT22;67941;52.506;5.470;2023-05-07T08:20:10;18.70;77.50
78619;DHT22;67941;52.506;5.470;2023-05-07T08:22:39;18.90;77.40
78619;DHT22;67941;52.506;5.470;2023-05-07T08:25:09;19.10;77.20
78619;DHT22;67941;52.506;5.470;2023-05-07T08:27:41;19.20;77.10
78619;DHT22;67941;52.506;5.470;2023-05-07T08:30:12;19.40;77.00
78619;DHT22;67941;52.506;5.470;2023-05-07T08:32:41;19.50;76.80
78619;DHT22;67941;52.506;5.470;2023-05-07T08:35:10;19.70;76.70
78619;DHT22;67941;52.506;5.470;2023-05-07T08:37:39;19.90;76.50
78619;DHT22;67941;52.506;5.470;2023-05-07T08:40:09;20.00;76.30
78619;DHT22;67941;52.506;5.470;2023-05-07T08:42:42;20.10;76.20
78619;DHT22;67941;52.506;5.470;2023-05-07T08:45:12;20.30;76.20
78619;DHT22;67941;52.506;5.470;2023-05-07T08:47:46;20.40;76.30
78619;DHT22;67941;52.506;5.470;2023-05-07T08:50:17;20.60;76.20
78619;DHT22;67941;52.506;5.470;2023-05-07T08:52:48;20.80;76.10
78619;DHT22;67941;52.506;5.470;2023-05-07T08:55:18;21.00;76.10
78619;DHT22;67941;52.506;5.470;2023-05-07T08:57:51;21.10;76.00
78619;DHT22;67941;52.506;5.470;2023-05-07T09:00:21;21.40;76.00
78619;DHT22;67941;52.506;5.470;2023-05-07T09:02:53;21.70;75.70
78619;DHT22;67941;52.506;5.470;2023-05-07T09:05:23;21.80;75.50
78619;DHT22;67941;52.506;5.470;2023-05-07T09:07:52;21.90;75.40
78619;DHT22;67941;52.506;5.470;2023-05-07T09:10:22;22.10;75.30
78619;DHT22;67941;52.506;5.470;2023-05-07T09:12:54;22.20;75.10
78619;DHT22;67941;52.506;5.470;2023-05-07T09:15:23;22.30;74.80
78619;DHT22;67941;52.506;5.470;2023-05-07T09:17:53;22.40;74.70
78619;DHT22;67941;52.506;5.470;2023-05-07T09:20:22;22.50;74.50
78619;DHT22;67941;52.506;5.470;2023-05-07T09:22:51;22.50;74.30
78619;DHT22;67941;52.506;5.470;2023-05-07T09:25:28;22.40;74.10
78619;DHT22;67941;52.506;5.470;2023-05-07T09:28:04;22.20;73.90
78619;DHT22;67941;52.506;5.470;2023-05-07T09:30:34;22.10;74.00
78619;DHT22;67941;52.506;5.470;2023-05-07T09:33:05;21.90;73.90
78619;DHT22;67941;52.506;5.470;2023-05-07T09:35:38;21.70;73.90
78619;DHT22;67941;52.506;5.470;2023-05-07T09:38:13;21.50;73.90
78619;DHT22;67941;52.506;5.470;2023-05-07T09:40:42;21.40;74.00
78619;DHT22;67941;52.506;5.470;2023-05-07T09:43:17;21.40;74.10
78619;DHT22;67941;52.506;5.470;2023-05-07T09:45:52;21.40;74.10
78619;DHT22;67941;52.506;5.470;2023-05-07T09:48:25;21.40;74.30
78619;DHT22;67941;52.506;5.470;2023-05-07T09:50:57;21.50;74.30
78619;DHT22;67941;52.506;5.470;2023-05-07T09:53:33;21.60;74.00
78619;DHT22;67941;52.506;5.470;2023-05-07T09:56:05;21.60;73.80
78619;DHT22;67941;52.506;5.470;2023-05-07T09:58:37;21.60;73.50
78619;DHT22;67941;52.506;5.470;2023-05-07T10:01:08;21.50;73.50
78619;DHT22;67941;52.506;5.470;2023-05-07T10:03:40;21.50;73.70
78619;DHT22;67941;52.506;5.470;2023-05-07T10:06:10;21.50;73.70
78619;DHT22;67941;52.506;5.470;2023-05-07T10:08:41;21.70;73.60
78619;DHT22;67941;52.506;5.470;2023-05-07T10:11:11;21.80;73.50
78619;DHT22;67941;52.506;5.470;2023-05-07T10:13:46;21.90;73.40
78619;DHT22;67941;52.506;5.470;2023-05-07T10:16:17;22.10;73.10
78619;DHT22;67941;52.506;5.470;2023-05-07T10:18:47;22.30;73.10
78619;DHT22;67941;52.506;5.470;2023-05-07T10:21:23;22.50;73.00
78619;DHT22;67941;52.506;5.470;2023-05-07T10:23:59;22.60;72.70
78619;DHT22;67941;52.506;5.470;2023-05-07T10:26:33;22.70;72.50
78619;DHT22;67941;52.506;5.470;2023-05-07T10:29:07;22.70;72.50
78619;DHT22;67941;52.506;5.470;2023-05-07T10:31:50;22.70;72.60
78619;DHT22;67941;52.506;5.470;2023-05-07T10:34:23;22.70;72.50
78619;DHT22;67941;52.506;5.470;2023-05-07T10:36:54;22.60;72.20
78619;DHT22;67941;52.506;5.470;2023-05-07T10:39:24;22.40;72.10
78619;DHT22;67941;52.506;5.470;2023-05-07T10:41:53;22.30;72.30
78619;DHT22;67941;52.506;5.470;2023-05-07T10:44:29;22.30;72.20
78619;DHT22;67941;52.506;5.470;2023-05-07T10:47:06;22.30;72.10
78619;DHT22;67941;52.506;5.470;2023-05-07T10:52:41;22.30;71.70
78619;DHT22;67941;52.506;5.470;2023-05-07T10:55:22;22.20;71.80
78619;DHT22;67941;52.506;5.470;2023-05-07T10:58:22;22.10;71.70
78619;DHT22;67941;52.506;5.470;2023-05-07T11:00:59;22.00;71.50
78619;DHT22;67941;52.506;5.470;2023-05-07T11:04:12;22.00;71.70
78619;DHT22;67941;52.506;5.470;2023-05-07T11:07:21;22.00;71.70
78619;DHT22;67941;52.506;5.470;2023-05-07T11:10:02;22.10;71.70
78619;DHT22;67941;52.506;5.470;2023-05-07T11:12:52;22.20;71.60
78619;DHT22;67941;52.506;5.470;2023-05-07T11:15:37;22.20;71.40
78619;DHT22;67941;52.506;5.470;2023-05-07T11:18:46;22.20;71.10
78619;DHT22;67941;52.506;5.470;2023-05-07T11:21:32;22.10;70.90
78619;DHT22;67941;52.506;5.470;2023-05-07T11:24:16;22.10;70.90
78619;DHT22;67941;52.506;5.470;2023-05-07T11:26:58;22.00;70.90
78619;DHT22;67941;52.506;5.470;2023-05-07T11:29:28;22.00;70.80
78619;DHT22;67941;52.506;5.470;2023-05-07T11:32:04;21.90;70.70
78619;DHT22;67941;52.506;5.470;2023-05-07T11:34:51;21.90;70.70
78619;DHT22;67941;52.506;5.470;2023-05-07T11:37:22;21.70;70.60
78619;DHT22;67941;52.506;5.470;2023-05-07T11:40:04;21.70;70.60
78619;DHT22;67941;52.506;5.470;2023-05-07T11:42:35;21.70;70.50
78619;DHT22;67941;52.506;5.470;2023-05-07T11:45:05;21.60;70.50
78619;DHT22;67941;52.506;5.470;2023-05-07T11:47:35;21.60;70.40
78619;DHT22;67941;52.506;5.470;2023-05-07T11:50:08;21.60;70.40
78619;DHT22;67941;52.506;5.470;2023-05-07T11:52:37;21.50;70.20
78619;DHT22;67941;52.506;5.470;2023-05-07T11:55:07;21.50;70.10
78619;DHT22;67941;52.506;5.470;2023-05-07T11:57:36;21.50;70.00
78619;DHT22;67941;52.506;5.470;2023-05-07T12:00:06;21.60;69.80
78619;DHT22;67941;52.506;5.470;2023-05-07T12:02:42;21.50;69.70
78619;DHT22;67941;52.506;5.470;2023-05-07T12:05:13;21.50;69.90
78619;DHT22;67941;52.506;5.470;2023-05-07T12:07:43;21.60;69.80
78619;DHT22;67941;52.506;5.470;2023-05-07T12:10:12;21.70;69.80
78619;DHT22;67941;52.506;5.470;2023-05-07T12:12:41;21.70;69.70
78619;DHT22;67941;52.506;5.470;2023-05-07T12:15:16;21.70;69.80
78619;DHT22;67941;52.506;5.470;2023-05-07T12:17:45;21.90;69.70
78619;DHT22;67941;52.506;5.470;2023-05-07T12:20:17;22.10;69.60
78619;DHT22;67941;52.506;5.470;2023-05-07T12:22:46;22.20;69.50
78619;DHT22;67941;52.506;5.470;2023-05-07T12:25:19;22.30;69.30
78619;DHT22;67941;52.506;5.470;2023-05-07T12:27:51;22.50;69.20
78619;DHT22;67941;52.506;5.470;2023-05-07T12:30:21;22.60;69.00
78619;DHT22;67941;52.506;5.470;2023-05-07T12:32:52;22.70;68.90
78619;DHT22;67941;52.506;5.470;2023-05-07T12:35:29;22.70;68.80
78619;DHT22;67941;52.506;5.470;2023-05-07T12:37:59;22.80;68.70
78619;DHT22;67941;52.506;5.470;2023-05-07T12:40:36;22.90;68.60
78619;DHT22;67941;52.506;5.470;2023-05-07T12:43:05;23.00;68.50
78619;DHT22;67941;52.506;5.470;2023-05-07T12:45:37;23.00;68.40
78619;DHT22;67941;52.506;5.470;2023-05-07T12:48:07;23.10;68.30
78619;DHT22;67941;52.506;5.470;2023-05-07T12:50:40;23.20;68.30
78619;DHT22;67941;52.506;5.470;2023-05-07T12:53:10;23.30;68.20
78619;DHT22;67941;52.506;5.470;2023-05-07T12:55:42;23.40;68.00
78619;DHT22;67941;52.506;5.470;2023-05-07T12:58:16;23.60;68.00
78619;DHT22;67941;52.506;5.470;2023-05-07T13:00:47;23.80;67.80
78619;DHT22;67941;52.506;5.470;2023-05-07T13:03:24;23.90;67.50
78619;DHT22;67941;52.506;5.470;2023-05-07T13:06:00;24.00;67.00
78619;DHT22;67941;52.506;5.470;2023-05-07T13:08:33;23.90;66.80
78619;DHT22;67941;52.506;5.470;2023-05-07T13:11:04;23.60;66.80
78619;DHT22;67941;52.506;5.470;2023-05-07T13:13:34;23.60;67.00
78619;DHT22;67941;52.506;5.470;2023-05-07T13:16:04;23.50;66.90
78619;DHT22;67941;52.506;5.470;2023-05-07T13:18:33;23.50;67.00
78619;DHT22;67941;52.506;5.470;2023-05-07T13:21:06;23.60;67.00
78619;DHT22;67941;52.506;5.470;2023-05-07T13:23:35;23.70;66.90
78619;DHT22;67941;52.506;5.470;2023-05-07T13:26:04;23.90;66.70
78619;DHT22;67941;52.506;5.470;2023-05-07T13:28:33;24.00;66.40
78619;DHT22;67941;52.506;5.470;2023-05-07T13:31:02;24.00;66.20
78619;DHT22;67941;52.506;5.470;2023-05-07T13:33:31;24.00;66.20
78619;DHT22;67941;52.506;5.470;2023-05-07T13:36:00;24.20;66.00
78619;DHT22;67941;52.506;5.470;2023-05-07T13:38:33;24.10;65.70
78619;DHT22;67941;52.506;5.470;2023-05-07T13:41:02;24.10;65.60
78619;DHT22;67941;52.506;5.470;2023-05-07T13:43:30;24.00;65.50
78619;DHT22;67941;52.506;5.470;2023-05-07T13:46:00;24.00;65.60
78619;DHT22;67941;52.506;5.470;2023-05-07T13:48:29;24.00;65.60
78619;DHT22;67941;52.506;5.470;2023-05-07T13:50:58;24.00;65.40
78619;DHT22;67941;52.506;5.470;2023-05-07T13:53:27;24.00;65.20
78619;DHT22;67941;52.506;5.470;2023-05-07T13:55:58;24.10;65.10
78619;DHT22;67941;52.506;5.470;2023-05-07T13:58:27;24.20;64.90
78619;DHT22;67941;52.506;5.470;2023-05-07T14:00:56;24.20;64.80
78619;DHT22;67941;52.506;5.470;2023-05-07T14:03:25;24.20;64.60
78619;DHT22;67941;52.506;5.470;2023-05-07T14:05:54;24.30;64.50
78619;DHT22;67941;52.506;5.470;2023-05-07T14:08:23;24.20;64.30
78619;DHT22;67941;52.506;5.470;2023-05-07T14:10:52;24.10;64.30
78619;DHT22;67941;52.506;5.470;2023-05-07T14:13:23;23.90;64.20
78619;DHT22;67941;52.506;5.470;2023-05-07T14:15:53;23.60;64.20
78619;DHT22;67941;52.506;5.470;2023-05-07T14:18:22;23.30;64.40
78619;DHT22;67941;52.506;5.470;2023-05-07T14:20:50;23.10;64.40
78619;DHT22;67941;52.506;5.470;2023-05-07T14:23:20;22.90;64.50
78619;DHT22;67941;52.506;5.470;2023-05-07T14:25:52;22.70;64.50
78619;DHT22;67941;52.506;5.470;2023-05-07T14:28:25;22.50;64.60
78619;DHT22;67941;52.506;5.470;2023-05-07T14:30:54;22.40;64.60
78619;DHT22;67941;52.506;5.470;2023-05-07T14:33:23;22.20;64.60
78619;DHT22;67941;52.506;5.470;2023-05-07T14:35:52;22.10;64.60
78619;DHT22;67941;52.506;5.470;2023-05-07T14:38:21;22.00;64.60
78619;DHT22;67941;52.506;5.470;2023-05-07T14:40:49;21.90;64.60
78619;DHT22;67941;52.506;5.470;2023-05-07T14:43:21;21.70;64.80
78619;DHT22;67941;52.506;5.470;2023-05-07T14:45:53;21.60;64.80
78619;DHT22;67941;52.506;5.470;2023-05-07T14:48:21;21.50;64.80
78619;DHT22;67941;52.506;5.470;2023-05-07T14:50:50;21.50;64.90
78619;DHT22;67941;52.506;5.470;2023-05-07T14:53:19;21.40;64.80
78619;DHT22;67941;52.506;5.470;2023-05-07T14:55:48;21.40;64.80
78619;DHT22;67941;52.506;5.470;2023-05-07T14:58:17;21.30;64.80
78619;DHT22;67941;52.506;5.470;2023-05-07T15:00:46;21.30;64.90
78619;DHT22;67941;52.506;5.470;2023-05-07T15:03:17;21.20;65.00
78619;DHT22;67941;52.506;5.470;2023-05-07T15:05:47;21.30;65.00
78619;DHT22;67941;52.506;5.470;2023-05-07T15:08:17;21.30;64.90
78619;DHT22;67941;52.506;5.470;2023-05-07T15:10:46;21.20;64.80
78619;DHT22;67941;52.506;5.470;2023-05-07T15:13:15;21.20;64.80
78619;DHT22;67941;52.506;5.470;2023-05-07T15:15:44;21.10;64.80
78619;DHT22;67941;52.506;5.470;2023-05-07T15:18:13;21.10;64.70
78619;DHT22;67941;52.506;5.470;2023-05-07T15:20:45;21.10;64.80
78619;DHT22;67941;52.506;5.470;2023-05-07T15:23:14;21.00;64.70
78619;DHT22;67941;52.506;5.470;2023-05-07T15:25:46;21.00;64.70
78619;DHT22;67941;52.506;5.470;2023-05-07T15:28:15;21.00;64.70
78619;DHT22;67941;52.506;5.470;2023-05-07T15:30:44;20.90;64.70
78619;DHT22;67941;52.506;5.470;2023-05-07T15:33:12;20.80;64.70
78619;DHT22;67941;52.506;5.470;2023-05-07T15:35:41;20.70;64.70
78619;DHT22;67941;52.506;5.470;2023-05-07T15:38:13;20.70;64.70
78619;DHT22;67941;52.506;5.470;2023-05-07T15:40:42;20.60;64.80
78619;DHT22;67941;52.506;5.470;2023-05-07T15:43:11;20.60;64.90
78619;DHT22;67941;52.506;5.470;2023-05-07T15:45:41;20.60;64.80
78619;DHT22;67941;52.506;5.470;2023-05-07T15:48:10;20.60;64.90
78619;DHT22;67941;52.506;5.470;2023-05-07T15:50:39;20.60;64.80
78619;DHT22;67941;52.506;5.470;2023-05-07T15:53:08;20.60;64.90
78619;DHT22;67941;52.506;5.470;2023-05-07T15:55:42;20.60;64.90
78619;DHT22;67941;52.506;5.470;2023-05-07T15:58:11;20.60;64.80